Time;durP1;ratioP1;P1;durP2;ratioP2;P2;SDS_P1;SDS_P2;PMS_P1;PMS_P2;Temp;Humidity;BMP_temperature;BMP_pressure;BME280_temperature;BME280_humidity;BME280_pressure;Samples;Min_cycle;Max_cycle;Signal;HPM_P1;HPM_P2
2021/05/04 00:00:17;;;;;;;0.15;0.15;;;;;;;5.31;65.57;100566.45;1794084;78;21139;-40
2021/05/04 00:02:45;;;;;;;0.42;0.42;;;;;;;5.33;65.42;100567.86;1763074;79;21168;-40
2021/05/04 00:05:13;;;;;;;0.05;0.05;;;;;;;5.35;65.33;100568.98;1762798;79;21140;-40
2021/05/04 00:07:40;;;;;;;0.10;0.10;;;;;;;5.39;65.30;100570.16;1765290;79;21133;-41
2021/05/04 00:10:09;;;;;;;0.05;0.05;;;;;;;5.39;65.24;100576.39;1788732;79;21443;-41
2021/05/04 00:12:36;;;;;;;0.30;0.30;;;;;;;5.39;65.17;100575.58;1794229;79;21595;-40
2021/05/04 00:15:08;;;;;;;0.10;0.10;;;;;;;5.35;65.25;100578.47;1792199;78;21165;-41
2021/05/04 00:17:36;;;;;;;0.05;0.05;;;;;;;5.34;65.25;100576.80;1791467;80;21122;-40
2021/05/04 00:20:05;;;;;;;0.10;0.10;;;;;;;5.30;65.23;100586.50;1791134;78;21501;-40
2021/05/04 00:22:32;;;;;;;0.10;0.10;;;;;;;5.26;65.24;100579.36;1772190;80;21138;-41
2021/05/04 00:25:00;;;;;;;0.10;0.10;;;;;;;5.24;65.31;100589.64;1705699;82;21141;-40
2021/05/04 00:27:27;;;;;;;0.00;0.00;;;;;;;5.21;65.36;100589.28;1760189;81;21165;-40
2021/05/04 00:29:55;;;;;;;0.10;0.10;;;;;;;5.14;65.48;100595.68;1760017;80;21209;-41
2021/05/04 00:32:22;;;;;;;0.85;0.37;;;;;;;5.10;65.64;100587.73;1760141;80;21563;-40
2021/05/04 00:34:51;;;;;;;0.00;0.00;;;;;;;5.08;65.74;100595.80;1760078;80;21113;-41
2021/05/04 00:37:19;;;;;;;0.10;0.10;;;;;;;5.04;65.85;100591.92;1737203;81;21082;-40
2021/05/04 00:39:47;;;;;;;0.10;0.10;;;;;;;5.00;66.00;100590.23;1760181;80;21138;-41
2021/05/04 00:42:15;;;;;;;0.13;0.13;;;;;;;4.95;66.19;100592.30;1760089;80;21469;-41
2021/05/04 00:44:42;;;;;;;0.20;0.20;;;;;;;4.91;66.44;100598.42;1760125;80;21141;-40
2021/05/04 00:47:10;;;;;;;0.70;0.70;;;;;;;4.87;66.56;100594.03;1760037;81;21170;-40
2021/05/04 00:49:38;;;;;;;0.10;0.10;;;;;;;4.83;66.74;100590.67;1760344;80;21169;-41
2021/05/04 00:52:06;;;;;;;0.30;0.30;;;;;;;4.79;66.96;100589.50;1759776;81;21157;-40
2021/05/04 00:54:33;;;;;;;0.10;0.10;;;;;;;4.74;67.24;100588.31;1759963;80;21153;-40
2021/05/04 00:57:01;;;;;;;0.00;0.00;;;;;;;4.76;67.44;100594.04;1760055;81;21113;-41
2021/05/04 00:59:28;;;;;;;0.03;0.03;;;;;;;4.77;67.49;100584.84;1722361;80;21157;-40
2021/05/04 01:01:55;;;;;;;0.03;0.03;;;;;;;4.72;67.65;100585.05;1767155;80;21110;-39
2021/05/04 01:04:23;;;;;;;0.10;0.10;;;;;;;4.67;67.86;100584.94;1735064;81;21157;-41
2021/05/04 01:06:50;;;;;;;0.20;0.20;;;;;;;4.63;68.03;100579.69;1767284;80;21604;-41
2021/05/04 01:09:18;;;;;;;0.00;0.00;;;;;;;4.60;68.21;100581.52;1790636;78;21105;-40
2021/05/04 01:11:46;;;;;;;0.42;0.42;;;;;;;4.57;68.36;100581.97;1791374;80;21134;-41
2021/05/04 01:14:13;;;;;;;0.00;0.00;;;;;;;4.52;68.44;100581.86;1791262;78;21178;-41
2021/05/04 01:16:45;;;;;;;0.10;0.10;;;;;;;4.48;68.60;100583.41;1791522;80;21575;-40
2021/05/04 01:19:13;;;;;;;0.00;0.00;;;;;;;4.42;68.81;100579.74;1791395;78;21213;-40
2021/05/04 01:21:42;;;;;;;0.10;0.10;;;;;;;4.40;68.92;100583.75;1791582;80;21129;-41
2021/05/04 01:24:11;;;;;;;0.00;0.00;;;;;;;4.37;69.10;100584.22;1791425;78;21161;-41
2021/05/04 01:26:44;;;;;;;0.65;0.65;;;;;;;4.36;69.22;100579.88;1782687;80;21122;-40
2021/05/04 01:29:14;;;;;;;0.00;0.00;;;;;;;4.35;69.47;100581.73;1760043;80;21184;-41
2021/05/04 01:31:42;;;;;;;0.10;0.10;;;;;;;4.35;69.52;100580.92;1760106;81;21129;-40
2021/05/04 01:34:11;;;;;;;0.10;0.10;;;;;;;4.34;69.57;100584.70;1760077;80;21111;-40
2021/05/04 01:36:40;;;;;;;2.37;1.00;;;;;;;4.27;69.67;100574.80;1781167;80;21581;-41
2021/05/04 01:39:08;;;;;;;0.10;0.10;;;;;;;4.24;69.81;100582.58;1791426;78;21153;-41
2021/05/04 01:41:36;;;;;;;0.00;0.00;;;;;;;4.24;70.04;100585.28;1791463;80;21117;-40
2021/05/04 01:44:05;;;;;;;0.20;0.20;;;;;;;4.25;70.06;100583.70;1791312;78;21529;-40
2021/05/04 01:46:32;;;;;;;0.15;0.15;;;;;;;4.24;70.15;100577.98;1760203;81;21106;-40
2021/05/04 01:49:07;;;;;;;0.15;0.15;;;;;;;4.25;70.17;100589.63;1759999;80;21169;-40
2021/05/04 01:51:37;;;;;;;0.10;0.10;;;;;;;4.21;70.25;100581.16;1759658;81;21134;-41
2021/05/04 01:54:04;;;;;;;0.10;0.10;;;;;;;4.16;70.37;100583.75;1760091;80;21737;-40
2021/05/04 01:56:32;;;;;;;0.00;0.00;;;;;;;4.10;70.45;100587.37;1760061;80;21141;-40
2021/05/04 02:01:39;;;;;;;0.00;0.00;;;;;;;4.05;70.74;100589.41;1836730;76;22694;-40
2021/05/04 02:04:06;;;;;;;0.10;0.10;;;;;;;3.99;70.92;100596.30;1739698;81;21109;-41
2021/05/04 02:06:34;;;;;;;0.10;0.10;;;;;;;3.96;71.05;100594.89;1723658;83;21146;-40
2021/05/04 02:09:01;;;;;;;0.10;0.10;;;;;;;3.94;71.18;100593.47;1715807;83;21178;-41
2021/05/04 02:11:29;;;;;;;0.93;0.17;;;;;;;3.90;71.34;100594.98;1724610;83;21434;-40
2021/05/04 02:13:57;;;;;;;0.10;0.10;;;;;;;3.83;71.49;100601.33;1724592;83;21766;-40
2021/05/04 02:16:26;;;;;;;0.10;0.10;;;;;;;3.79;71.61;100597.96;1693236;84;21166;-42
2021/05/04 02:18:54;;;;;;;0.10;0.10;;;;;;;3.76;71.77;100594.34;1695908;84;21141;-40
2021/05/04 02:21:22;;;;;;;0.08;0.08;;;;;;;3.71;72.01;100603.17;1693333;84;21971;-40
2021/05/04 02:23:49;;;;;;;0.00;0.00;;;;;;;3.67;72.21;100600.63;1703021;83;21141;-40
2021/05/04 02:26:17;;;;;;;0.10;0.10;;;;;;;3.64;72.37;100608.66;1722163;83;21581;-41
2021/05/04 02:28:45;;;;;;;0.10;0.10;;;;;;;3.61;72.50;100606.43;1724932;83;21169;-40
2021/05/04 02:31:13;;;;;;;0.10;0.10;;;;;;;3.60;72.69;100612.05;1733255;81;21197;-41
2021/05/04 02:33:41;;;;;;;0.20;0.20;;;;;;;3.59;72.80;100617.17;1711801;82;21239;-41
2021/05/04 02:36:09;;;;;;;3.00;0.62;;;;;;;3.58;72.93;100627.66;1721410;83;21126;-40
2021/05/04 02:38:37;;;;;;;0.00;0.00;;;;;;;3.56;73.09;100625.70;1691079;84;21190;-41
2021/05/04 02:41:05;;;;;;;0.05;0.05;;;;;;;3.52;73.34;100628.59;1691227;84;21209;-41
2021/05/04 02:43:34;;;;;;;0.10;0.10;;;;;;;3.51;73.56;100633.67;1691253;84;21432;-40
2021/05/04 02:46:02;;;;;;;0.10;0.10;;;;;;;3.50;73.79;100638.27;1691147;84;21190;-40
2021/05/04 02:48:33;;;;;;;0.00;0.00;;;;;;;3.54;73.90;100629.19;1691055;84;21302;-41
2021/05/04 02:50:59;;;;;;;0.00;0.00;;;;;;;3.60;74.06;100632.31;1721487;83;21130;-41
2021/05/04 02:53:28;;;;;;;0.00;0.00;;;;;;;3.66;74.14;100641.69;1695818;84;21133;-40
2021/05/04 02:55:56;;;;;;;0.13;0.13;;;;;;;3.77;74.21;100633.31;1721559;83;21146;-41
2021/05/04 02:58:23;;;;;;;0.10;0.10;;;;;;;3.86;74.12;100638.70;1695644;84;21177;-39
2021/05/04 03:00:51;;;;;;;0.10;0.10;;;;;;;3.96;74.09;100641.39;1721442;83;21134;-40
2021/05/04 03:03:19;;;;;;;0.10;0.10;;;;;;;4.04;73.99;100645.10;1695637;84;21536;-40
2021/05/04 03:05:46;;;;;;;0.00;0.00;;;;;;;4.12;74.01;100641.23;1721545;83;21422;-40
2021/05/04 03:08:14;;;;;;;0.40;0.40;;;;;;;4.21;73.88;100647.97;1695514;84;21162;-40
2021/05/04 03:10:41;;;;;;;0.00;0.00;;;;;;;4.33;73.72;100643.91;1703759;84;21074;-40
2021/05/04 03:13:09;;;;;;;0.10;0.10;;;;;;;4.44;73.59;100653.40;1720904;83;21131;-40
2021/05/04 03:15:36;;;;;;;0.13;0.13;;;;;;;4.55;73.24;100646.87;1667342;84;21446;-41
2021/05/04 03:18:04;;;;;;;0.62;0.20;;;;;;;4.65;73.08;100658.78;1690593;84;20969;-40
2021/05/04 03:20:31;;;;;;;0.00;0.00;;;;;;;4.75;72.88;100660.91;1723823;83;21152;-42
2021/05/04 03:23:01;;;;;;;0.20;0.20;;;;;;;4.86;72.68;100663.30;1723639;83;21156;-42
2021/05/04 03:25:28;;;;;;;0.10;0.10;;;;;;;4.94;72.47;100662.40;1700830;84;21126;-40
2021/05/04 03:27:58;;;;;;;0.00;0.00;;;;;;;5.02;72.14;100665.81;1719694;82;21102;-40
2021/05/04 03:30:26;;;;;;;0.08;0.08;;;;;;;5.11;72.04;100669.27;1730243;82;21445;-41
2021/05/04 03:32:54;;;;;;;0.10;0.10;;;;;;;5.22;71.79;100672.20;1721906;83;21138;-40
2021/05/04 03:35:22;;;;;;;0.00;0.00;;;;;;;5.29;71.51;100672.89;1695501;83;21161;-39
2021/05/04 03:37:49;;;;;;;0.05;0.05;;;;;;;5.40;71.25;100670.70;1732684;82;21119;-40
2021/05/04 03:40:16;;;;;;;0.95;0.35;;;;;;;5.48;71.03;100672.21;1732511;82;21162;-40
2021/05/04 03:42:44;;;;;;;0.33;0.33;;;;;;;5.55;70.81;100672.36;1732653;82;21134;-41
2021/05/04 03:45:12;;;;;;;0.00;0.00;;;;;;;5.64;70.49;100673.33;1732578;82;21125;-40
2021/05/04 03:47:43;;;;;;;0.10;0.10;;;;;;;5.73;70.19;100673.24;1732659;82;21109;-40
2021/05/04 03:50:18;;;;;;;0.10;0.10;;;;;;;5.82;69.99;100669.09;1732814;82;21183;-41
2021/05/04 03:52:45;;;;;;;0.65;0.30;;;;;;;5.92;69.68;100674.70;1732299;82;21126;-40
2021/05/04 03:55:14;;;;;;;0.00;0.00;;;;;;;6.00;69.22;100675.69;1732622;82;21167;-40
2021/05/04 03:57:41;;;;;;;0.10;0.10;;;;;;;6.11;69.12;100682.64;1732642;82;21134;-40
2021/05/04 04:00:10;;;;;;;0.13;0.13;;;;;;;6.20;68.69;100686.08;1732471;81;21301;-39
2021/05/04 04:02:38;;;;;;;1.67;0.40;;;;;;;6.28;68.45;100682.17;1732665;82;21461;-40
2021/05/04 04:05:07;;;;;;;0.35;0.35;;;;;;;6.37;68.25;100684.75;1731911;82;21141;-41
2021/05/04 04:07:34;;;;;;;0.10;0.10;;;;;;;6.48;67.82;100678.13;1732788;82;21446;-40
2021/05/04 04:10:02;;;;;;;0.00;0.00;;;;;;;6.56;67.60;100681.27;1732682;82;21159;-40
2021/05/04 04:12:29;;;;;;;0.00;0.00;;;;;;;6.64;67.37;100678.66;1732349;82;21137;-42
2021/05/04 04:14:56;;;;;;;0.10;0.10;;;;;;;6.71;66.94;100680.68;1732610;82;21449;-40
2021/05/04 04:17:24;;;;;;;0.47;0.40;;;;;;;6.79;66.69;100681.61;1732743;82;21126;-40
2021/05/04 04:19:51;;;;;;;0.35;0.28;;;;;;;6.88;66.65;100687.46;1701957;82;21137;-41
2021/05/04 04:22:19;;;;;;;0.00;0.00;;;;;;;6.96;66.48;100684.85;1732423;82;21179;-40
2021/05/04 04:24:46;;;;;;;0.20;0.20;;;;;;;7.05;66.41;100680.65;1732637;82;21576;-39
2021/05/04 04:27:13;;;;;;;0.20;0.20;;;;;;;7.14;65.96;100680.48;1732619;82;21142;-40
2021/05/04 04:29:43;;;;;;;0.00;0.00;;;;;;;7.21;65.91;100667.53;1732580;82;21126;-41
2021/05/04 04:32:11;;;;;;;0.10;0.10;;;;;;;7.30;65.75;100671.47;1732591;82;21145;-42
2021/05/04 04:34:38;;;;;;;0.30;0.30;;;;;;;7.40;65.41;100672.68;1732530;82;21146;-41
2021/05/04 04:37:06;;;;;;;0.13;0.13;;;;;;;7.48;65.39;100679.03;1732494;82;21162;-40
2021/05/04 04:39:34;;;;;;;0.20;0.20;;;;;;;7.57;65.25;100681.59;1732256;82;21617;-40
2021/05/04 04:42:04;;;;;;;0.47;0.13;;;;;;;7.66;64.94;100687.39;1732462;82;21166;-41
2021/05/04 04:44:31;;;;;;;0.10;0.10;;;;;;;7.76;64.61;100692.95;1732553;82;21686;-40
2021/05/04 04:47:00;;;;;;;0.20;0.20;;;;;;;7.82;64.60;100686.50;1732655;82;21190;-40
2021/05/04 04:49:27;;;;;;;3.72;0.40;;;;;;;7.92;64.30;100696.12;1732592;82;21707;-40
2021/05/04 04:51:55;;;;;;;0.33;0.30;;;;;;;8.01;64.10;100693.79;1696664;84;21734;-40
2021/05/04 04:54:22;;;;;;;0.17;0.17;;;;;;;8.09;63.89;100684.34;1703282;84;21122;-40
2021/05/04 04:56:50;;;;;;;0.20;0.20;;;;;;;8.17;63.65;100692.84;1703318;84;21201;-40
2021/05/04 04:59:19;;;;;;;0.23;0.23;;;;;;;8.26;63.31;100688.28;1712795;82;21138;-40
2021/05/04 05:01:47;;;;;;;0.50;0.50;;;;;;;8.34;63.20;100682.39;1728839;81;21924;-40
2021/05/04 05:04:14;;;;;;;1.27;0.62;;;;;;;8.44;63.25;100691.22;1726887;83;21158;-40
2021/05/04 05:06:43;;;;;;;0.35;0.35;;;;;;;8.52;63.65;100691.55;1727165;83;21618;-41
2021/05/04 05:09:10;;;;;;;2.50;0.98;;;;;;;8.66;62.85;100673.43;1718730;83;21166;-40
2021/05/04 05:11:38;;;;;;;0.15;0.15;;;;;;;8.77;62.31;100684.66;1727198;83;21141;-41
2021/05/04 05:14:08;;;;;;;1.20;0.65;;;;;;;8.88;61.96;100679.58;1726948;83;21127;-40
2021/05/04 05:16:36;;;;;;;0.10;0.10;;;;;;;8.97;61.53;100680.70;1727197;83;21122;-43
2021/05/04 05:19:04;;;;;;;0.45;0.30;;;;;;;9.06;61.05;100691.95;1727089;82;21150;-40
2021/05/04 05:21:32;;;;;;;0.20;0.20;;;;;;;9.11;61.10;100680.26;1727171;83;21118;-40
2021/05/04 05:24:00;;;;;;;0.13;0.13;;;;;;;9.19;60.79;100679.75;1727127;82;21225;-40
2021/05/04 05:26:30;;;;;;;0.55;0.35;;;;;;;9.30;60.86;100680.09;1726943;82;21194;-42
2021/05/04 05:28:58;;;;;;;1.27;0.65;;;;;;;9.41;60.95;100674.95;1727014;83;21162;-42
2021/05/04 05:31:30;;;;;;;0.82;0.82;;;;;;;9.58;60.25;100679.39;1726895;83;21126;-40
2021/05/04 05:33:57;;;;;;;0.13;0.13;;;;;;;9.70;59.49;100684.07;1727171;82;21430;-40
2021/05/04 05:36:25;;;;;;;0.88;0.57;;;;;;;9.79;60.12;100686.56;1727107;83;21478;-40
2021/05/04 05:38:52;;;;;;;0.50;0.50;;;;;;;9.90;59.55;100677.30;1727103;82;21023;-40
2021/05/04 05:41:20;;;;;;;0.10;0.10;;;;;;;10.05;59.62;100681.16;1727123;82;21174;-40
2021/05/04 05:43:48;;;;;;;0.15;0.15;;;;;;;10.18;58.99;100681.99;1727112;82;21174;-41
2021/05/04 05:46:16;;;;;;;0.15;0.15;;;;;;;10.27;58.45;100677.64;1727005;82;21466;-40
2021/05/04 05:48:45;;;;;;;0.23;0.17;;;;;;;10.34;57.72;100684.24;1726926;83;21575;-40
2021/05/04 05:51:13;;;;;;;0.28;0.28;;;;;;;10.41;57.35;100686.69;1675550;83;21628;-40
2021/05/04 05:53:40;;;;;;;0.13;0.13;;;;;;;10.44;57.32;100684.80;1726784;82;21174;-40
2021/05/04 05:56:08;;;;;;;0.10;0.10;;;;;;;10.50;57.06;100685.05;1727255;83;21183;-40
2021/05/04 05:58:35;;;;;;;0.13;0.13;;;;;;;10.57;56.36;100685.60;1727222;83;21418;-42
2021/05/04 06:01:02;;;;;;;0.10;0.10;;;;;;;10.61;56.25;100679.88;1728321;82;21576;-40
2021/05/04 06:03:30;;;;;;;0.20;0.15;;;;;;;10.68;56.03;100684.52;1732445;82;21507;-40
2021/05/04 06:05:58;;;;;;;0.62;0.62;;;;;;;10.76;55.93;100686.69;1732530;82;21138;-40
2021/05/04 06:08:26;;;;;;;0.30;0.30;;;;;;;10.84;55.94;100681.77;1730727;82;21118;-40
2021/05/04 06:10:54;;;;;;;0.50;0.50;;;;;;;10.91;55.91;100687.78;1723208;82;21197;-40
2021/05/04 06:13:23;;;;;;;2.77;0.45;;;;;;;10.99;55.52;100689.94;1722946;82;21525;-40
2021/05/04 06:15:51;;;;;;;0.40;0.40;;;;;;;11.11;55.25;100688.28;1708602;82;21506;-41
2021/05/04 06:18:18;;;;;;;0.47;0.47;;;;;;;11.30;55.06;100689.85;1730676;82;21106;-40
2021/05/04 06:20:47;;;;;;;0.45;0.45;;;;;;;11.50;54.32;100684.86;1740145;80;21167;-40
2021/05/04 06:23:14;;;;;;;0.50;0.40;;;;;;;11.58;53.51;100682.93;1718309;83;21187;-40
2021/05/04 06:25:42;;;;;;;0.20;0.20;;;;;;;11.60;53.33;100678.81;1693625;84;21142;-42
2021/05/04 06:28:10;;;;;;;1.47;0.57;;;;;;;11.61;53.05;100681.80;1713584;83;21133;-40
2021/05/04 06:30:38;;;;;;;0.10;0.10;;;;;;;11.65;53.01;100682.61;1715292;83;21126;-40
2021/05/04 06:33:10;;;;;;;0.33;0.33;;;;;;;11.74;53.10;100678.19;1712668;81;21104;-41
2021/05/04 06:35:43;;;;;;;0.15;0.15;;;;;;;11.85;52.81;100667.47;1695086;84;21162;-41
2021/05/04 06:38:12;;;;;;;0.47;0.40;;;;;;;11.98;52.32;100677.81;1694400;83;21149;-40
2021/05/04 06:40:41;;;;;;;0.10;0.10;;;;;;;12.10;51.31;100677.47;1742351;81;21142;-41
2021/05/04 06:43:08;;;;;;;0.10;0.10;;;;;;;12.17;51.20;100678.53;1695187;83;21134;-40
2021/05/04 06:45:37;;;;;;;0.35;0.30;;;;;;;12.25;51.44;100678.73;1732045;82;21178;-41
2021/05/04 06:48:06;;;;;;;1.17;0.55;;;;;;;12.31;51.12;100678.69;1731073;82;20984;-41
2021/05/04 06:50:33;;;;;;;0.33;0.33;;;;;;;12.33;49.11;100675.13;1748739;81;21143;-40
2021/05/04 06:53:01;;;;;;;0.23;0.23;;;;;;;12.32;49.55;100677.05;1723903;81;21623;-40
2021/05/04 06:55:30;;;;;;;0.62;0.62;;;;;;;12.37;49.15;100681.13;1723624;82;21141;-40
2021/05/04 06:57:57;;;;;;;0.40;0.40;;;;;;;12.43;48.93;100677.22;1724063;83;21636;-42
2021/05/04 07:00:25;;;;;;;0.50;0.50;;;;;;;12.54;48.64;100668.94;1706204;81;21273;-40
2021/05/04 07:02:53;;;;;;;0.50;0.50;;;;;;;12.59;48.45;100674.37;1732182;81;21170;-40
2021/05/04 07:05:21;;;;;;;1.20;0.55;;;;;;;12.44;48.87;100683.55;1723387;82;21629;-42
2021/05/04 07:07:48;;;;;;;0.23;0.23;;;;;;;12.36;49.11;100682.77;1703201;84;21121;-40
2021/05/04 07:10:16;;;;;;;0.33;0.33;;;;;;;12.40;49.16;100687.95;1703471;82;20975;-40
2021/05/04 07:12:44;;;;;;;0.17;0.17;;;;;;;12.44;48.10;100687.09;1705196;82;21165;-40
2021/05/04 07:15:24;;;;;;;0.85;0.85;;;;;;;12.35;47.78;100692.91;1816182;76;22066;-40
2021/05/04 07:17:54;;;;;;;0.47;0.47;;;;;;;12.19;47.99;100690.00;1732940;81;21142;-40
2021/05/04 07:20:22;;;;;;;0.47;0.47;;;;;;;12.29;49.10;100692.70;1746235;81;21114;-40
2021/05/04 07:22:54;;;;;;;0.72;0.20;;;;;;;12.51;48.83;100683.20;1751245;81;21138;-40
2021/05/04 07:25:20;;;;;;;0.15;0.15;;;;;;;12.59;47.45;100684.78;1744193;80;21143;-39
2021/05/04 07:27:47;;;;;;;3.40;1.75;;;;;;;12.52;47.43;100690.33;1734826;81;21147;-41
2021/05/04 07:30:16;;;;;;;1.10;0.80;;;;;;;12.51;47.43;100687.31;1749403;81;21182;-40
2021/05/04 07:32:44;;;;;;;0.10;0.10;;;;;;;12.53;47.03;100691.95;1717876;82;21184;-40
2021/05/04 07:35:12;;;;;;;4.20;3.83;;;;;;;12.52;46.20;100697.19;1747762;82;21181;-40
2021/05/04 07:37:41;;;;;;;0.62;0.40;;;;;;;12.50;45.70;100688.42;1728781;81;21098;-40
2021/05/04 07:40:10;;;;;;;0.00;0.00;;;;;;;12.50;44.72;100692.53;1732888;82;21176;-40
2021/05/04 07:42:37;;;;;;;1.35;0.28;;;;;;;12.43;45.19;100698.33;1732682;82;21505;-41
2021/05/04 07:45:06;;;;;;;0.10;0.10;;;;;;;12.46;45.35;100694.48;1742756;81;21569;-40
2021/05/04 07:47:34;;;;;;;0.72;0.72;;;;;;;12.61;44.40;100695.45;1721479;83;21167;-40
2021/05/04 07:50:03;;;;;;;0.42;0.42;;;;;;;12.84;44.22;100702.12;1731943;82;21157;-41
2021/05/04 07:52:31;;;;;;;0.75;0.10;;;;;;;13.12;43.76;100692.23;1732473;82;21169;-41
2021/05/04 07:54:58;;;;;;;0.60;0.60;;;;;;;13.33;44.01;100686.02;1732720;82;20995;-40
2021/05/04 07:57:26;;;;;;;0.10;0.10;;;;;;;13.47;43.33;100703.95;1732863;82;21150;-41
2021/05/04 07:59:55;;;;;;;0.35;0.35;;;;;;;13.45;43.28;100689.70;1701405;82;21232;-39
2021/05/04 08:02:22;;;;;;;0.78;0.40;;;;;;;13.48;43.21;100687.20;1755699;81;21131;-40
2021/05/04 08:04:50;;;;;;;0.20;0.20;;;;;;;13.62;43.50;100685.91;1715506;81;21426;-40
2021/05/04 08:07:18;;;;;;;0.57;0.37;;;;;;;13.75;43.06;100687.95;1695273;83;21154;-41
2021/05/04 08:09:48;;;;;;;1.00;0.62;;;;;;;13.76;42.97;100681.34;1694002;84;21159;-40
2021/05/04 08:12:15;;;;;;;0.20;0.20;;;;;;;13.61;43.14;100692.52;1724883;82;21639;-41
2021/05/04 08:14:46;;;;;;;2.83;1.17;;;;;;;13.40;42.56;100691.97;1733461;81;21131;-40
2021/05/04 08:17:18;;;;;;;0.20;0.20;;;;;;;13.18;42.94;100689.71;1731302;80;21152;-40
2021/05/04 08:19:43;;;;;;;2.20;0.50;;;;;;;12.99;43.64;100690.99;1729397;82;21138;-40
2021/05/04 08:22:11;;;;;;;0.85;0.65;;;;;;;12.83;44.36;100698.56;1732268;82;21146;-40
2021/05/04 08:24:40;;;;;;;0.10;0.10;;;;;;;12.72;44.46;100696.20;1754128;81;21131;-42
2021/05/04 08:27:07;;;;;;;0.20;0.20;;;;;;;12.66;45.52;100694.02;1765094;80;21597;-40
2021/05/04 08:29:35;;;;;;;0.03;0.03;;;;;;;12.66;45.44;100704.99;1752527;80;21095;-40
2021/05/04 08:32:03;;;;;;;0.55;0.20;;;;;;;12.60;44.33;100706.16;1724202;83;21146;-40
2021/05/04 08:34:33;;;;;;;0.35;0.30;;;;;;;12.45;45.91;100698.31;1734340;80;21135;-39
2021/05/04 08:37:01;;;;;;;0.10;0.10;;;;;;;12.33;46.48;100698.41;1744648;81;21147;-41
2021/05/04 08:39:28;;;;;;;0.20;0.20;;;;;;;12.24;46.60;100694.11;1746277;82;21192;-41
2021/05/04 08:41:56;;;;;;;0.10;0.10;;;;;;;12.23;46.61;100698.74;1746669;82;21179;-40
2021/05/04 08:44:24;;;;;;;0.30;0.30;;;;;;;12.26;46.53;100701.47;1750411;80;20964;-40
2021/05/04 08:46:52;;;;;;;0.55;0.55;;;;;;;12.29;46.65;100701.44;1716375;81;21158;-40
2021/05/04 08:49:20;;;;;;;0.28;0.20;;;;;;;12.30;44.75;100703.91;1723039;83;21161;-42
2021/05/04 08:51:50;;;;;;;0.10;0.10;;;;;;;12.23;43.92;100704.78;1723877;83;21130;-40
2021/05/04 08:54:18;;;;;;;0.17;0.08;;;;;;;12.09;44.68;100702.40;1694232;83;21145;-40
2021/05/04 08:56:45;;;;;;;0.20;0.20;;;;;;;11.98;44.93;100701.65;1723708;83;21153;-40
2021/05/04 08:59:14;;;;;;;0.40;0.40;;;;;;;11.93;45.73;100698.38;1721231;81;21146;-44
2021/05/04 09:01:44;;;;;;;1.20;0.28;;;;;;;11.98;44.88;100700.28;1723792;83;21165;-40
2021/05/04 09:04:34;;;;;;;0.10;0.10;;;;;;;12.08;44.99;100696.66;1720449;81;21147;-41
2021/05/04 09:07:28;;;;;;;1.20;0.33;;;;;;;12.26;44.74;100691.88;1716102;83;21446;-43
2021/05/04 09:13:01;;;;;;;0.00;0.00;;;;;;;12.47;43.76;100679.66;1707045;83;21082;-40
2021/05/04 09:21:14;;;;;;;0.20;0.20;;;;;;;12.26;43.28;100688.61;1734532;82;21134;-40
2021/05/04 09:23:43;;;;;;;0.03;0.03;;;;;;;12.13;45.33;100693.89;1736822;82;21118;-40
2021/05/04 09:26:19;;;;;;;0.10;0.10;;;;;;;11.96;46.14;100704.66;1740202;82;21655;-43
2021/05/04 09:28:51;;;;;;;0.37;0.37;;;;;;;11.69;46.26;100698.19;1739907;82;21512;-44
2021/05/04 09:31:24;;;;;;;0.20;0.20;;;;;;;11.51;46.28;100704.30;1739985;82;21565;-40
2021/05/04 09:33:53;;;;;;;1.10;0.50;;;;;;;11.54;46.23;100699.08;1697930;82;21462;-45
2021/05/04 09:36:49;;;;;;;0.10;0.10;;;;;;;11.75;46.45;100697.64;1740183;82;21066;-40
2021/05/04 09:39:29;;;;;;;0.23;0.23;;;;;;;12.07;45.87;100697.75;1739344;82;21201;-41
2021/05/04 09:41:59;;;;;;;0.30;0.30;;;;;;;12.34;45.76;100679.48;1727507;83;21177;-42
2021/05/04 09:44:46;;;;;;;0.53;0.23;;;;;;;12.55;44.50;100676.05;1721163;81;21509;-40
2021/05/04 09:47:24;;;;;;;0.10;0.10;;;;;;;12.69;44.91;100687.99;1725700;83;21129;-42
2021/05/04 09:49:52;;;;;;;0.05;0.03;;;;;;;12.82;45.26;100685.94;1735483;81;21158;-39
2021/05/04 09:55:16;;;;;;;0.40;0.40;;;;;;;12.91;44.47;100691.63;1744227;81;21151;-42
2021/05/04 10:00:26;;;;;;;0.13;0.13;;;;;;;12.87;44.76;100685.89;1815901;76;22674;-40
2021/05/04 10:02:58;;;;;;;0.10;0.10;;;;;;;12.82;45.06;100689.24;1716916;83;21138;-42
2021/05/04 10:05:25;;;;;;;0.00;0.00;;;;;;;12.86;44.50;100678.78;1673967;83;21454;-40
2021/05/04 10:07:53;;;;;;;0.10;0.10;;;;;;;12.96;44.97;100683.36;1725862;80;21148;-40
2021/05/04 10:10:21;;;;;;;0.10;0.10;;;;;;;13.17;44.61;100672.97;1670989;81;21193;-40
2021/05/04 10:12:48;;;;;;;0.10;0.00;;;;;;;13.43;44.42;100679.59;1713094;81;21155;-40
2021/05/04 10:15:16;;;;;;;0.23;0.23;;;;;;;13.64;44.22;100662.29;1672704;84;21155;-40
2021/05/04 10:17:44;;;;;;;0.15;0.15;;;;;;;13.84;43.49;100659.26;1741407;80;21592;-40
2021/05/04 10:20:15;;;;;;;0.00;0.00;;;;;;;13.92;42.68;100668.77;1742245;80;21388;-40
2021/05/04 10:22:42;;;;;;;0.20;0.20;;;;;;;13.94;42.28;100651.44;1736827;82;21180;-41
2021/05/04 10:25:15;;;;;;;0.50;0.28;;;;;;;14.07;42.79;100657.58;1748674;81;21129;-40
2021/05/04 10:27:43;;;;;;;1.67;0.10;;;;;;;14.17;42.38;100665.66;1730066;82;21177;-40
2021/05/04 10:30:12;;;;;;;0.00;0.00;;;;;;;14.21;41.71;100675.48;1729880;81;21465;-40
2021/05/04 10:32:59;;;;;;;0.10;0.10;;;;;;;14.30;42.76;100659.15;1730508;82;21143;-40
2021/05/04 10:35:34;;;;;;;0.80;0.10;;;;;;;14.51;41.22;100668.68;1730518;81;21137;-40
2021/05/04 10:38:12;;;;;;;1.00;0.25;;;;;;;14.47;40.20;100662.73;1701478;82;21107;-40
2021/05/04 10:40:49;;;;;;;0.33;0.30;;;;;;;14.29;40.34;100654.22;1730690;82;21619;-40
2021/05/04 10:43:27;;;;;;;0.42;0.42;;;;;;;14.17;40.74;100660.16;1727366;82;21174;-41
2021/05/04 10:45:56;;;;;;;0.20;0.20;;;;;;;14.28;41.64;100651.75;1723866;82;21164;-42
2021/05/04 10:48:48;;;;;;;0.00;0.00;;;;;;;14.39;40.08;100658.70;1730220;82;21102;-41
2021/05/04 10:51:18;;;;;;;0.98;0.40;;;;;;;14.37;38.33;100662.34;1701271;82;21175;-41
2021/05/04 10:54:01;;;;;;;0.20;0.20;;;;;;;14.17;38.07;100661.54;1726811;81;21520;-39
2021/05/04 10:56:38;;;;;;;2.08;0.30;;;;;;;13.90;39.50;100666.89;1730758;82;21266;-40
2021/05/04 10:59:11;;;;;;;0.00;0.00;;;;;;;13.66;40.75;100666.94;1731617;81;21134;-40
2021/05/04 11:01:46;;;;;;;0.53;0.10;;;;;;;13.53;40.84;100668.48;1734518;82;21587;-40
2021/05/04 11:04:13;;;;;;;0.23;0.23;;;;;;;13.51;41.22;100668.76;1722942;82;21134;-40
2021/05/04 11:06:42;;;;;;;0.10;0.10;;;;;;;13.65;41.63;100662.01;1705319;84;21611;-40
2021/05/04 11:09:10;;;;;;;0.80;0.72;;;;;;;13.89;41.64;100654.25;1705743;82;21174;-42
2021/05/04 11:11:42;;;;;;;0.13;0.13;;;;;;;14.20;40.50;100651.31;1704528;84;21169;-42
2021/05/04 11:14:19;;;;;;;0.10;0.10;;;;;;;14.48;40.38;100645.91;1722945;82;21137;-42
2021/05/04 11:17:06;;;;;;;0.25;0.10;;;;;;;14.70;39.48;100637.61;1716833;81;21149;-41
2021/05/04 11:19:40;;;;;;;0.10;0.10;;;;;;;14.87;38.95;100646.09;1753290;81;21126;-42
2021/05/04 11:22:16;;;;;;;0.20;0.20;;;;;;;14.90;38.40;100645.48;1741075;82;21163;-41
2021/05/04 11:24:47;;;;;;;0.68;0.33;;;;;;;14.80;37.98;100642.92;1740678;81;21565;-40
2021/05/04 11:27:22;;;;;;;0.50;0.50;;;;;;;14.70;39.10;100647.23;1741241;82;21124;-41
2021/05/04 11:29:55;;;;;;;0.00;0.00;;;;;;;14.58;38.57;100649.89;1788724;78;21121;-41
2021/05/04 11:32:38;;;;;;;0.62;0.30;;;;;;;14.42;39.38;100648.50;1789096;80;21139;-41
2021/05/04 11:35:08;;;;;;;0.25;0.25;;;;;;;14.28;39.18;100660.81;1788876;80;21150;-41
2021/05/04 11:37:43;;;;;;;0.10;0.10;;;;;;;14.09;39.39;100658.06;1762194;80;21600;-42
2021/05/04 11:40:21;;;;;;;0.10;0.10;;;;;;;13.90;40.69;100652.59;1791195;80;21142;-41
2021/05/04 11:42:51;;;;;;;0.10;0.10;;;;;;;13.71;40.66;100659.44;1784296;80;21129;-41
2021/05/04 11:45:32;;;;;;;0.15;0.15;;;;;;;13.54;41.41;100651.69;1789336;80;21134;-41
2021/05/04 11:48:07;;;;;;;0.23;0.23;;;;;;;13.49;41.05;100657.81;1782220;80;21141;-41
2021/05/04 11:50:40;;;;;;;0.30;0.30;;;;;;;13.44;41.83;100665.55;1789766;80;20965;-41
2021/05/04 11:53:10;;;;;;;0.28;0.28;;;;;;;13.37;45.15;100677.44;1790404;80;21490;-40
2021/05/04 11:55:51;;;;;;;0.72;0.72;;;;;;;13.11;46.95;100676.33;1790081;79;21201;-42